Iliysk North Airport

Jump to: basic info | weather | comments

Related pages: nearby airports | nearby navaids

Basic information (top)

Location: lon 43.998299, lat 77.139099, elev 2,343 ft / 714 m msl
Status: small_airport

Weather (top)

Current conditions for Almaty Airport 39nm (72km) S (rec'd 2014/12/20 02:30Z):

UAAA 200230Z VRB01MPS 1700 BR FU SCT050 BKN100 M05/M08 Q1026 R88/81//60 NOSIG

Airport forecast for Almaty Airport 39nm (72km) S (rec'd 2014/12/19 00:18Z):

TAF TAF UAAA 192300Z 2000/2024 16004MPS 1000 BR FU SCT020 OVC100 TX01/2008Z TNM08/2001Z 
      TEMPO 2000/2006 0300 FZFG 
      BECMG 2008/2009 04005MPS 2000 
      TEMPO 2011/2024 0400 FZFG

Latest comments (top)

No comments yet for Iliysk North Airport

More... (top)

See also NOTAMs and nearby airports and navaids, or visit the Iliysk North Airport page at the main OurAirports website..